createdAt,value
2019-05-17T00:00:28.970Z,8.00
2019-05-17T00:02:57.030Z,8.00
2019-05-17T00:05:23.375Z,7.90
2019-05-17T00:07:49.535Z,7.90
2019-05-17T00:10:17.370Z,7.80
2019-05-17T00:12:43.548Z,7.80
2019-05-17T00:15:09.899Z,7.70
2019-05-17T00:17:37.824Z,7.70
2019-05-17T00:20:06.288Z,7.70
2019-05-17T00:22:32.511Z,7.60
2019-05-17T00:24:58.581Z,7.50
2019-05-17T00:27:26.467Z,7.50
2019-05-17T00:29:52.659Z,7.40
2019-05-17T00:32:18.701Z,7.40
2019-05-17T00:34:46.877Z,7.30
2019-05-17T00:37:12.793Z,7.30
2019-05-17T00:39:38.829Z,7.20
2019-05-17T00:42:07.045Z,7.20
2019-05-17T00:44:32.846Z,7.20
2019-05-17T00:46:58.995Z,7.20
2019-05-17T00:49:26.400Z,7.20
2019-05-17T00:51:52.584Z,7.10
2019-05-17T00:54:18.602Z,7.00
2019-05-17T00:56:46.392Z,7.00
2019-05-17T00:59:12.616Z,6.90
2019-05-17T01:01:38.656Z,6.90
2019-05-17T01:04:06.678Z,6.80
2019-05-17T01:06:32.617Z,6.80
2019-05-17T01:09:01.772Z,6.80
2019-05-17T01:11:27.083Z,6.80
2019-05-17T01:13:55.793Z,6.80
2019-05-17T01:16:21.172Z,6.70
2019-05-17T01:18:47.316Z,6.70
2019-05-17T01:21:13.372Z,6.70
2019-05-17T01:23:39.404Z,6.60
2019-05-17T01:26:07.486Z,6.60
2019-05-17T01:28:33.482Z,6.50
2019-05-17T01:30:59.549Z,6.40
2019-05-17T01:33:26.445Z,6.30
2019-05-17T01:35:52.730Z,6.30
2019-05-17T01:38:18.750Z,6.30
2019-05-17T01:40:46.353Z,6.40
2019-05-17T01:43:12.540Z,6.40
2019-05-17T01:45:38.581Z,6.30
2019-05-17T01:48:07.024Z,6.30
2019-05-17T01:50:32.939Z,6.20
2019-05-17T01:52:58.986Z,6.10
2019-05-17T01:55:26.538Z,5.90
2019-05-17T01:57:52.790Z,5.90
2019-05-17T02:00:19.022Z,5.90
2019-05-17T02:02:47.180Z,5.90
2019-05-17T02:05:13.800Z,5.90
2019-05-17T02:07:39.843Z,5.80
2019-05-17T02:10:07.436Z,5.70
2019-05-17T02:12:33.852Z,5.60
2019-05-17T02:14:59.928Z,5.60
2019-05-17T02:17:26.595Z,5.60
2019-05-17T02:19:52.832Z,5.60
2019-05-17T02:22:18.880Z,5.60
2019-05-17T02:24:46.432Z,5.60
2019-05-17T02:27:12.759Z,5.50
2019-05-17T02:29:38.791Z,5.50
2019-05-17T02:32:05.036Z,5.50
2019-05-17T02:34:33.733Z,5.50
2019-05-17T02:36:59.094Z,5.50
2019-05-17T02:39:25.171Z,5.40
2019-05-17T02:41:53.308Z,5.40
2019-05-17T02:44:19.173Z,5.20
2019-05-17T02:46:45.230Z,5.20
2019-05-17T02:49:13.768Z,5.10
2019-05-17T02:51:39.308Z,5.10
2019-05-17T02:54:05.473Z,5.10
2019-05-17T02:56:32.745Z,5.10
2019-05-17T02:58:59.582Z,5.10
2019-05-17T03:01:25.734Z,5.10
2019-05-17T03:03:52.947Z,5.00
2019-05-17T03:06:22.560Z,4.90
2019-05-17T03:08:47.231Z,4.90
2019-05-17T03:11:13.720Z,4.90
2019-05-17T03:13:43.193Z,4.90
2019-05-17T03:16:07.751Z,4.90
2019-05-17T03:18:33.938Z,4.80
2019-05-17T03:21:03.370Z,4.70
2019-05-17T03:23:28.107Z,4.70
2019-05-17T03:25:54.249Z,4.60
2019-05-17T03:28:23.413Z,4.50
2019-05-17T03:30:48.354Z,4.60
2019-05-17T03:33:16.494Z,4.60
2019-05-17T03:35:45.771Z,4.70
2019-05-17T03:38:14.065Z,4.60
2019-05-17T03:41:03.611Z,4.50
2019-05-17T03:43:07.846Z,4.50
2019-05-17T03:45:34.308Z,4.40
2019-05-17T03:48:04.655Z,4.40
2019-05-17T03:50:29.248Z,4.40
2019-05-17T03:52:55.435Z,4.30
2019-05-17T03:55:23.488Z,4.30
2019-05-17T03:57:52.993Z,4.30
2019-05-17T04:00:17.900Z,4.20
2019-05-17T04:02:44.890Z,4.20
2019-05-17T04:05:12.686Z,4.20
2019-05-17T04:07:39.068Z,4.20
2019-05-17T04:10:06.455Z,4.10
2019-05-17T04:12:32.842Z,4.10
2019-05-17T04:15:02.867Z,4.10
2019-05-17T04:17:26.918Z,4.10
2019-05-17T04:19:53.450Z,4.10
2019-05-17T04:22:19.735Z,4.10
2019-05-17T04:24:45.756Z,4.10
2019-05-17T04:27:13.590Z,4.10
2019-05-17T04:29:42.427Z,4.10
2019-05-17T04:32:07.673Z,4.10
2019-05-17T04:34:34.020Z,4.20
2019-05-17T04:37:00.432Z,4.20
2019-05-17T04:39:26.474Z,4.20
2019-05-17T04:41:54.883Z,4.20
2019-05-17T04:44:23.112Z,4.20
2019-05-17T04:46:48.462Z,4.20
2019-05-17T04:49:14.494Z,4.30
2019-05-17T04:51:43.714Z,4.40
2019-05-17T04:54:08.489Z,4.50
2019-05-17T04:56:34.610Z,4.60
2019-05-17T04:59:03.246Z,4.70
2019-05-17T05:01:28.906Z,4.80
2019-05-17T05:03:55.063Z,4.90
2019-05-17T05:06:23.346Z,4.90
2019-05-17T05:08:49.085Z,5.00
2019-05-17T05:11:15.131Z,5.10
2019-05-17T05:13:42.650Z,5.20
2019-05-17T05:16:08.834Z,5.30
2019-05-17T05:18:34.878Z,5.30
2019-05-17T05:21:03.502Z,5.40
2019-05-17T05:23:28.888Z,5.40
2019-05-17T05:25:55.024Z,5.50
2019-05-17T05:28:22.531Z,5.60
2019-05-17T05:30:48.725Z,5.70
2019-05-17T05:33:14.731Z,5.80
2019-05-17T05:35:42.465Z,5.90
2019-05-17T05:38:08.698Z,6.00
2019-05-17T05:40:34.715Z,6.10
2019-05-17T05:43:02.363Z,6.20
2019-05-17T05:45:28.584Z,6.30
2019-05-17T05:47:54.631Z,6.40
2019-05-17T05:50:21.838Z,6.40
2019-05-17T05:52:48.078Z,6.50
2019-05-17T05:55:14.307Z,6.60
2019-05-17T05:57:42.024Z,6.70
2019-05-17T06:00:12.672Z,6.80
2019-05-17T06:02:38.982Z,6.90
2019-05-17T06:05:07.322Z,7.00
2019-05-17T06:07:33.368Z,7.30
2019-05-17T06:10:02.022Z,7.40
2019-05-17T06:12:28.248Z,7.60
2019-05-17T06:14:54.438Z,7.80
2019-05-17T06:17:21.611Z,7.90
2019-05-17T06:19:47.816Z,8.00
2019-05-17T06:22:13.861Z,8.20
2019-05-17T06:24:42.350Z,8.30
2019-05-17T06:27:08.244Z,8.40
2019-05-17T06:29:34.280Z,8.50
2019-05-17T06:32:02.482Z,8.60
2019-05-17T06:34:28.266Z,8.60
2019-05-17T06:36:54.312Z,8.70
2019-05-17T06:39:22.399Z,8.80
2019-05-17T06:41:48.387Z,8.90
2019-05-17T06:44:14.419Z,8.90
2019-05-17T06:46:41.822Z,9.00
2019-05-17T06:49:08.199Z,9.20
2019-05-17T06:51:34.235Z,9.20
2019-05-17T06:54:01.797Z,9.20
2019-05-17T06:56:28.036Z,9.30
2019-05-17T06:58:54.095Z,9.40
2019-05-17T07:01:20.158Z,9.50
2019-05-17T07:03:46.196Z,9.50
2019-05-17T07:06:14.144Z,9.60
2019-05-17T07:08:40.300Z,9.70
2019-05-17T07:11:06.411Z,9.70
2019-05-17T07:13:32.461Z,9.90
2019-05-17T07:15:59.748Z,10.00
2019-05-17T07:18:26.166Z,10.10
2019-05-17T07:20:52.237Z,10.10
2019-05-17T07:23:19.711Z,10.20
2019-05-17T07:25:45.932Z,10.20
2019-05-17T07:28:11.990Z,10.30
2019-05-17T07:30:40.017Z,10.30
2019-05-17T07:33:10.064Z,10.50
2019-05-17T07:35:36.501Z,10.50
2019-05-17T07:38:02.632Z,10.60
2019-05-17T07:40:30.356Z,10.70
2019-05-17T07:43:07.845Z,10.70
2019-05-17T07:45:24.490Z,10.80
2019-05-17T07:47:50.562Z,10.80
2019-05-17T07:50:17.102Z,10.90
2019-05-17T07:52:43.291Z,11.00
2019-05-17T07:55:10.780Z,11.10
2019-05-17T07:57:37.276Z,11.20
2019-05-17T08:00:10.138Z,11.30
2019-05-17T08:02:35.726Z,11.40
2019-05-17T08:05:05.649Z,11.40
2019-05-17T08:07:31.702Z,11.40
2019-05-17T08:09:59.928Z,11.60
2019-05-17T08:12:25.697Z,11.60
2019-05-17T08:14:51.741Z,11.60
2019-05-17T08:17:19.818Z,11.70
2019-05-17T08:19:45.872Z,11.80
2019-05-17T08:22:12.022Z,11.90
2019-05-17T08:24:39.983Z,12.10
2019-05-17T08:27:10.838Z,12.10
2019-05-17T08:29:37.127Z,12.30
2019-05-17T08:32:03.277Z,12.50
2019-05-17T08:34:29.911Z,12.50
2019-05-17T08:36:55.964Z,12.70
2019-05-17T08:39:22.050Z,12.80
2019-05-17T08:41:49.751Z,12.80
2019-05-17T08:44:15.861Z,12.90
2019-05-17T08:46:42.047Z,13.10
2019-05-17T08:49:09.736Z,13.20
2019-05-17T08:51:36.169Z,13.40
2019-05-17T08:54:06.443Z,13.50
2019-05-17T08:56:34.906Z,13.60
2019-05-17T08:59:01.040Z,13.80
2019-05-17T09:01:27.095Z,13.90
2019-05-17T09:03:53.139Z,14.10
2019-05-17T09:06:22.449Z,14.20
2019-05-17T09:08:49.958Z,14.30
2019-05-17T09:11:16.212Z,14.50
2019-05-17T09:13:54.732Z,14.60
2019-05-17T09:16:10.788Z,14.70
2019-05-17T09:18:39.272Z,14.90
2019-05-17T09:21:05.071Z,14.90
2019-05-17T09:23:31.375Z,15.10
2019-05-17T09:25:59.380Z,15.30
2019-05-17T09:28:25.450Z,15.50
2019-05-17T09:30:51.494Z,15.60
2019-05-17T09:33:20.121Z,15.70
2019-05-17T09:35:46.059Z,15.80
2019-05-17T09:38:12.404Z,16.00
2019-05-17T09:40:40.281Z,16.20
2019-05-17T09:43:06.459Z,16.30
2019-05-17T09:45:32.890Z,16.50
2019-05-17T09:48:07.223Z,16.70
2019-05-17T09:50:33.358Z,16.60
2019-05-17T09:52:59.974Z,16.70
2019-05-17T09:55:26.231Z,16.90
2019-05-17T09:57:52.386Z,17.10
2019-05-17T10:00:20.831Z,17.30
2019-05-17T10:02:47.061Z,17.40
2019-05-17T10:05:13.187Z,17.60
2019-05-17T10:07:40.352Z,17.70
2019-05-17T10:10:06.923Z,17.90
2019-05-17T10:12:32.966Z,18.00
2019-05-17T10:15:00.521Z,18.00
2019-05-17T10:17:26.745Z,18.10
2019-05-17T10:19:52.878Z,18.20
2019-05-17T10:22:20.049Z,18.30
2019-05-17T10:24:46.189Z,18.40
2019-05-17T10:27:14.839Z,18.40
2019-05-17T10:29:44.085Z,18.50
2019-05-17T10:32:10.576Z,18.60
2019-05-17T10:34:40.075Z,18.70
2019-05-17T10:37:05.232Z,18.90
2019-05-17T10:39:31.296Z,19.00
2019-05-17T10:42:00.691Z,19.00
2019-05-17T10:44:40.971Z,19.00
2019-05-17T10:46:54.827Z,19.10
2019-05-17T10:49:20.865Z,19.10
2019-05-17T10:51:49.246Z,19.20
2019-05-17T10:54:14.913Z,19.30
2019-05-17T10:56:41.351Z,19.50
2019-05-17T10:59:09.662Z,19.70
2019-05-17T11:01:35.397Z,19.80
2019-05-17T11:04:04.546Z,19.90
2019-05-17T11:06:30.729Z,19.90
2019-05-17T11:08:56.781Z,20.00
2019-05-17T11:11:22.841Z,20.00
2019-05-17T11:13:48.886Z,20.00
2019-05-17T11:16:14.934Z,20.10
2019-05-17T11:18:41.120Z,20.20
2019-05-17T11:21:07.298Z,20.20
2019-05-17T11:23:33.529Z,20.40
2019-05-17T11:25:59.642Z,20.60
2019-05-17T11:28:27.653Z,20.80
2019-05-17T11:30:53.788Z,20.90
2019-05-17T11:33:19.863Z,20.80
2019-05-17T11:35:45.897Z,20.90
2019-05-17T11:38:12.014Z,21.00
2019-05-17T11:40:38.111Z,21.10
2019-05-17T11:43:05.454Z,21.20
2019-05-17T11:45:33.828Z,21.00
2019-05-17T11:48:00.165Z,21.10
2019-05-17T11:50:28.778Z,21.10
2019-05-17T11:52:54.937Z,21.20
2019-05-17T11:55:20.993Z,21.30
2019-05-17T11:57:47.093Z,21.30
2019-05-17T12:00:15.651Z,21.10
2019-05-17T12:02:41.750Z,20.90
2019-05-17T12:05:07.898Z,21.00
2019-05-17T12:07:34.053Z,20.90
2019-05-17T12:10:00.111Z,20.70
2019-05-17T12:12:26.135Z,20.60
2019-05-17T12:14:52.196Z,20.60
2019-05-17T12:17:18.399Z,20.70
2019-05-17T12:19:44.465Z,20.90
2019-05-17T12:22:10.501Z,20.80
2019-05-17T12:24:36.547Z,20.80
2019-05-17T12:27:02.818Z,20.80
2019-05-17T12:29:28.974Z,20.80
2019-05-17T12:31:55.048Z,20.70
2019-05-17T12:34:21.097Z,20.70
2019-05-17T12:36:47.127Z,20.50
2019-05-17T12:39:13.187Z,20.50
2019-05-17T12:41:39.210Z,20.70
2019-05-17T12:44:05.316Z,21.00
2019-05-17T12:46:31.475Z,21.10
2019-05-17T12:48:57.532Z,21.00
2019-05-17T12:51:23.555Z,21.00
2019-05-17T12:53:49.620Z,21.00
2019-05-17T12:56:15.687Z,21.00
2019-05-17T12:58:41.867Z,21.10
2019-05-17T13:01:07.909Z,21.30
2019-05-17T13:03:34.055Z,21.20
2019-05-17T13:06:00.136Z,21.20
2019-05-17T13:08:26.147Z,21.10
2019-05-17T13:10:52.254Z,21.10
2019-05-17T13:13:18.287Z,21.10
2019-05-17T13:15:44.393Z,21.20
2019-05-17T13:18:10.449Z,21.30
2019-05-17T13:20:36.543Z,21.20
2019-05-17T13:23:03.045Z,21.10
2019-05-17T13:25:29.376Z,21.10
2019-05-17T13:27:55.414Z,21.20
2019-05-17T13:30:21.663Z,21.20
2019-05-17T13:32:47.713Z,21.20
2019-05-17T13:35:15.607Z,21.20
2019-05-17T13:37:41.773Z,21.30
2019-05-17T13:40:08.227Z,21.20
2019-05-17T13:42:34.462Z,21.20
2019-05-17T13:45:00.505Z,21.10
2019-05-17T13:47:26.587Z,21.00
2019-05-17T13:49:52.679Z,21.00
2019-05-17T13:52:18.751Z,21.00
2019-05-17T13:54:46.971Z,21.00
2019-05-17T13:57:15.131Z,21.10
2019-05-17T13:59:58.127Z,21.10
2019-05-17T14:02:25.428Z,21.10
2019-05-17T14:04:56.956Z,21.10
2019-05-17T14:07:31.368Z,21.10
2019-05-17T14:09:57.519Z,21.20
2019-05-17T14:12:27.949Z,21.10
2019-05-17T14:14:54.734Z,21.10
2019-05-17T14:17:25.906Z,21.10
2019-05-17T14:19:52.181Z,21.10
2019-05-17T14:22:22.722Z,20.90
2019-05-17T14:24:54.536Z,20.50
2019-05-17T14:27:40.448Z,20.50
2019-05-17T14:30:08.637Z,20.40
2019-05-17T14:32:37.272Z,20.40
2019-05-17T14:35:04.345Z,20.40
2019-05-17T14:37:32.906Z,20.40
2019-05-17T14:39:59.128Z,20.30
2019-05-17T14:42:25.320Z,20.30
2019-05-17T14:44:55.420Z,20.20
2019-05-17T14:47:21.630Z,20.30
2019-05-17T14:49:51.095Z,20.30
2019-05-17T14:52:22.039Z,20.30
2019-05-17T14:54:50.747Z,20.30
2019-05-17T14:57:19.073Z,20.30
2019-05-17T14:59:45.693Z,20.30
2019-05-17T15:02:12.295Z,20.40
2019-05-17T15:04:39.439Z,20.40
2019-05-17T15:07:14.328Z,20.00
2019-05-17T15:09:49.094Z,19.70
2019-05-17T15:15:03.929Z,19.30
2019-05-17T15:17:21.486Z,19.00
2019-05-17T15:19:51.770Z,19.00
2019-05-17T15:22:35.849Z,18.80
2019-05-17T15:25:11.094Z,18.60
2019-05-17T15:27:45.000Z,18.60
2019-05-17T15:30:26.207Z,18.60
2019-05-17T15:33:00.932Z,18.40
2019-05-17T15:35:27.352Z,18.20
2019-05-17T15:38:12.448Z,18.00
2019-05-17T15:40:40.988Z,17.90
2019-05-17T15:43:07.871Z,17.70
2019-05-17T15:45:34.134Z,17.70
2019-05-17T15:48:00.159Z,17.70
2019-05-17T15:50:30.375Z,17.50
2019-05-17T15:52:56.404Z,17.50
2019-05-17T15:55:22.562Z,17.50
2019-05-17T15:57:48.683Z,17.40
2019-05-17T16:00:15.294Z,17.30
2019-05-17T16:02:50.789Z,17.10
2019-05-17T16:05:16.942Z,16.90
2019-05-17T16:07:48.256Z,16.80
2019-05-17T16:10:15.591Z,16.70
2019-05-17T16:13:00.857Z,16.60
2019-05-17T16:15:16.042Z,16.70
2019-05-17T16:17:47.062Z,16.70
2019-05-17T16:20:17.097Z,16.60
2019-05-17T16:22:47.664Z,16.50
2019-05-17T16:25:14.725Z,16.40
2019-05-17T16:27:55.881Z,16.40
2019-05-17T16:30:28.465Z,16.40
2019-05-17T16:32:54.792Z,16.10
2019-05-17T16:35:21.011Z,16.10
2019-05-17T16:37:50.023Z,16.10
2019-05-17T16:40:16.458Z,16.00
2019-05-17T16:42:42.901Z,16.10
2019-05-17T16:45:13.330Z,16.00
2019-05-17T16:47:39.563Z,16.00
2019-05-17T16:50:06.655Z,15.90
2019-05-17T16:52:38.795Z,15.90
2019-05-17T16:55:16.310Z,16.00
2019-05-17T16:57:49.016Z,16.10
2019-05-17T17:00:41.399Z,16.10
2019-05-17T17:03:12.994Z,16.10
2019-05-17T17:05:45.470Z,16.10
2019-05-17T17:08:11.689Z,15.90
2019-05-17T17:10:37.832Z,15.80
2019-05-17T17:13:04.349Z,15.90
2019-05-17T17:15:36.315Z,16.00
2019-05-17T17:18:09.379Z,16.00
2019-05-17T17:20:35.633Z,16.10
2019-05-17T17:23:03.573Z,16.10
2019-05-17T17:25:32.442Z,16.10
2019-05-17T17:27:58.575Z,16.10
2019-05-17T17:30:24.623Z,16.10
2019-05-17T17:32:58.318Z,16.10
2019-05-17T17:35:29.673Z,15.90
2019-05-17T17:37:55.883Z,15.70
2019-05-17T17:40:23.771Z,15.70
2019-05-17T17:42:49.893Z,15.70
2019-05-17T17:45:18.141Z,15.60
2019-05-17T17:47:44.217Z,15.60
2019-05-17T17:50:10.854Z,15.60
2019-05-17T17:52:36.910Z,15.60
2019-05-17T17:55:04.570Z,15.70
2019-05-17T17:57:30.728Z,15.70
2019-05-17T17:59:56.784Z,15.70
2019-05-17T18:02:29.542Z,15.70
2019-05-17T18:04:56.653Z,15.70
2019-05-17T18:07:22.915Z,15.60
2019-05-17T18:09:49.062Z,15.50
2019-05-17T18:12:15.116Z,15.60
2019-05-17T18:14:41.178Z,15.60
2019-05-17T18:17:07.257Z,15.60
2019-05-17T18:19:35.238Z,15.60
2019-05-17T18:22:01.454Z,15.60
2019-05-17T18:24:27.566Z,15.50
2019-05-17T18:26:53.666Z,15.50
2019-05-17T18:29:21.707Z,15.40
2019-05-17T18:31:48.895Z,15.40
2019-05-17T18:34:15.197Z,15.40
2019-05-17T18:36:41.405Z,15.40
2019-05-17T18:39:07.835Z,15.30
2019-05-17T18:41:33.924Z,15.30
2019-05-17T18:44:00.219Z,15.30
2019-05-17T18:46:26.303Z,15.20
2019-05-17T18:48:52.388Z,15.10
2019-05-17T18:51:18.862Z,15.10
2019-05-17T18:53:45.270Z,15.10
2019-05-17T18:56:11.468Z,15.00
2019-05-17T18:58:39.291Z,15.00
2019-05-17T19:01:05.531Z,14.90
2019-05-17T19:03:31.634Z,14.90
2019-05-17T19:05:57.760Z,14.90
2019-05-17T19:08:23.824Z,14.80
2019-05-17T19:10:49.867Z,14.70
2019-05-17T19:13:15.920Z,14.60
2019-05-17T19:15:42.692Z,14.60
2019-05-17T19:18:08.813Z,14.60
2019-05-17T19:20:34.830Z,14.50
2019-05-17T19:23:00.889Z,14.40
2019-05-17T19:25:27.026Z,14.40
2019-05-17T19:27:53.098Z,14.30
2019-05-17T19:30:19.408Z,14.30
2019-05-17T19:32:45.575Z,14.30
2019-05-17T19:35:11.832Z,14.30
2019-05-17T19:37:37.886Z,14.40
2019-05-17T19:40:06.205Z,14.40
2019-05-17T19:42:32.242Z,14.40
2019-05-17T19:44:59.567Z,14.30
2019-05-17T19:47:26.028Z,14.20
2019-05-17T19:49:52.140Z,14.30
2019-05-17T20:01:52.229Z,14.20
2019-05-17T20:04:29.550Z,14.10
2019-05-17T20:07:11.875Z,14.10
2019-05-17T20:12:45.697Z,14.10
2019-05-17T20:15:18.365Z,14.00
2019-05-17T20:18:03.571Z,14.00
2019-05-17T20:20:33.680Z,14.00
2019-05-17T20:23:06.040Z,14.00
2019-05-17T20:25:38.276Z,14.00
2019-05-17T20:28:04.428Z,13.90
2019-05-17T20:30:30.442Z,13.90
2019-05-17T20:32:56.475Z,13.80
2019-05-17T20:35:22.673Z,13.80
2019-05-17T20:37:48.700Z,13.70
2019-05-17T20:40:15.363Z,13.60
2019-05-17T20:42:41.444Z,13.60
2019-05-17T20:45:09.340Z,13.70
2019-05-17T20:47:35.569Z,13.60
2019-05-17T20:50:04.103Z,13.60
2019-05-17T20:52:30.125Z,13.60
2019-05-17T20:54:56.171Z,13.60
2019-05-17T20:57:22.287Z,13.60
2019-05-17T20:59:48.679Z,13.40
2019-05-17T21:02:14.835Z,13.40
2019-05-17T21:04:41.022Z,13.40
2019-05-17T21:07:07.072Z,13.30
2019-05-17T21:09:33.251Z,13.30
2019-05-17T21:11:59.414Z,13.10
2019-05-17T21:14:25.490Z,13.10
2019-05-17T21:16:51.649Z,13.10
2019-05-17T21:19:17.662Z,13.10
2019-05-17T21:21:43.859Z,13.10
2019-05-17T21:24:10.146Z,13.10
2019-05-17T21:26:36.381Z,13.10
2019-05-17T21:29:02.432Z,13.10
2019-05-17T21:31:28.967Z,13.20
2019-05-17T21:33:55.017Z,13.20
2019-05-17T21:36:21.063Z,13.20
2019-05-17T21:38:47.133Z,13.10
2019-05-17T21:41:13.251Z,13.10
2019-05-17T21:43:39.308Z,13.10
2019-05-17T21:46:05.476Z,13.10
2019-05-17T21:48:31.530Z,13.00
2019-05-17T21:50:57.672Z,13.00
2019-05-17T21:53:23.737Z,13.10
2019-05-17T21:55:49.791Z,13.00
2019-05-17T21:58:20.128Z,13.00
2019-05-17T22:01:02.344Z,12.90
2019-05-17T22:03:28.420Z,12.90
2019-05-17T22:05:54.514Z,12.90
2019-05-17T22:08:20.714Z,12.90
2019-05-17T22:10:47.391Z,12.90
2019-05-17T22:13:13.430Z,13.00
2019-05-17T22:15:39.493Z,13.00
2019-05-17T22:18:05.767Z,12.90
2019-05-17T22:20:31.852Z,12.80
2019-05-17T22:22:58.124Z,12.70
2019-05-17T22:25:24.201Z,12.60
2019-05-17T22:27:50.232Z,12.50
2019-05-17T22:30:16.399Z,12.50
2019-05-17T22:32:42.463Z,12.40
2019-05-17T22:35:08.609Z,12.30
2019-05-17T22:37:34.695Z,12.20
2019-05-17T22:40:00.789Z,12.10
2019-05-17T22:42:26.816Z,12.20
2019-05-17T22:44:52.883Z,12.20
2019-05-17T22:47:18.947Z,12.20
2019-05-17T22:49:45.116Z,12.20
2019-05-17T22:52:11.202Z,12.20
2019-05-17T22:54:37.226Z,12.30
2019-05-17T22:57:03.322Z,12.30
2019-05-17T22:59:29.353Z,12.30
2019-05-17T23:01:55.490Z,12.30
2019-05-17T23:04:21.521Z,12.30
2019-05-17T23:06:47.564Z,12.20
2019-05-17T23:09:13.602Z,12.10
2019-05-17T23:11:39.676Z,12.10
2019-05-17T23:14:05.726Z,12.20
2019-05-17T23:16:31.765Z,12.10
2019-05-17T23:19:10.134Z,12.10
2019-05-17T23:21:36.711Z,12.10
2019-05-17T23:24:03.357Z,12.10
2019-05-17T23:26:29.467Z,12.20
2019-05-17T23:28:55.563Z,12.20
2019-05-17T23:31:21.665Z,12.20
2019-05-17T23:33:47.706Z,12.20
2019-05-17T23:36:13.762Z,12.10
2019-05-17T23:38:39.809Z,12.10
2019-05-17T23:41:05.985Z,12.10
2019-05-17T23:43:32.126Z,12.10
2019-05-17T23:45:58.170Z,12.10
2019-05-17T23:48:24.215Z,12.10
2019-05-17T23:50:50.266Z,12.10
2019-05-17T23:53:16.298Z,12.00
2019-05-17T23:55:42.360Z,12.00
2019-05-17T23:58:08.411Z,12.00
